Time;durP1;ratioP1;P1;durP2;ratioP2;P2;SDS_P1;SDS_P2;PMS_P1;PMS_P2;Temp;Humidity;BMP_temperature;BMP_pressure;BME280_temperature;BME280_humidity;BME280_pressure;Samples;Min_cycle;Max_cycle;Signal;HPM_P1;HPM_P2
2023/06/13 00:01:13;;;;;;;4.68;3.95;;;22.50;77.10;;;;;;5093224;28;20205;-47
2023/06/13 00:03:39;;;;;;;5.30;3.47;;;22.50;77.40;;;;;;5093453;28;20168;-47
2023/06/13 00:06:05;;;;;;;6.18;3.58;;;22.50;77.70;;;;;;5093421;28;20177;-47
2023/06/13 00:08:35;;;;;;;7.38;4.00;;;22.40;77.30;;;;;;5092895;28;20267;-48
2023/06/13 00:11:00;;;;;;;5.03;3.35;;;22.40;77.50;;;;;;5093086;28;20185;-47
2023/06/13 00:13:26;;;;;;;4.53;3.55;;;22.40;77.50;;;;;;5093522;28;20252;-47
2023/06/13 00:15:57;;;;;;;4.93;3.60;;;22.30;77.70;;;;;;5092516;28;20161;-48
2023/06/13 00:18:23;;;;;;;5.60;3.80;;;22.30;77.20;;;;;;5093304;28;20298;-48
2023/06/13 00:20:54;;;;;;;6.65;3.65;;;22.30;77.80;;;;;;5092904;28;21172;-47
2023/06/13 00:23:21;;;;;;;7.80;3.60;;;22.30;77.70;;;;;;5093058;28;20169;-48
2023/06/13 00:25:46;;;;;;;6.07;3.88;;;22.20;77.70;;;;;;5092863;28;20535;-47
2023/06/13 00:28:12;;;;;;;8.50;4.00;;;22.40;78.60;;;;;;5092873;28;20173;-47
2023/06/13 00:30:37;;;;;;;4.22;3.55;;;22.30;78.40;;;;;;5092974;28;20189;-47
2023/06/13 00:33:04;;;;;;;5.45;3.60;;;22.20;78.20;;;;;;5092750;28;20214;-47
2023/06/13 00:35:30;;;;;;;5.35;3.78;;;22.20;78.20;;;;;;5092646;28;20176;-47
2023/06/13 00:37:57;;;;;;;7.57;3.65;;;22.10;78.30;;;;;;5093150;28;20165;-47
2023/06/13 00:40:23;;;;;;;4.40;3.47;;;22.10;78.20;;;;;;5092785;28;20177;-46
2023/06/13 00:42:52;;;;;;;6.13;3.80;;;22.10;79.00;;;;;;5092511;28;20636;-47
2023/06/13 00:45:23;;;;;;;8.10;4.25;;;22.10;80.50;;;;;;5092362;28;20189;-47
2023/06/13 00:47:58;;;;;;;4.75;3.95;;;22.00;79.50;;;;;;5092425;28;20191;-47
2023/06/13 00:50:36;;;;;;;6.75;3.95;;;21.90;80.30;;;;;;5092744;28;20176;-47
2023/06/13 00:53:09;;;;;;;5.35;3.60;;;21.90;80.50;;;;;;5092289;28;20161;-47
2023/06/13 00:55:36;;;;;;;9.25;4.03;;;21.70;81.20;;;;;;5092250;28;20162;-47
2023/06/13 00:58:06;;;;;;;7.00;4.13;;;21.70;81.00;;;;;;5092475;28;20173;-47
2023/06/13 01:00:33;;;;;;;4.68;4.03;;;21.70;81.20;;;;;;5092000;28;20715;-47
2023/06/13 01:03:02;;;;;;;6.18;4.22;;;21.70;82.10;;;;;;5092178;28;20173;-47
2023/06/13 01:05:28;;;;;;;5.45;3.90;;;21.50;84.50;;;;;;5092763;28;20197;-47
2023/06/13 01:07:58;;;;;;;7.53;3.88;;;21.20;88.20;;;;;;5091836;28;20630;-47
2023/06/13 01:10:28;;;;;;;6.35;3.45;;;21.00;90.00;;;;;;5092604;28;20619;-47
2023/06/13 01:13:11;;;;;;;6.80;4.18;;;20.90;90.90;;;;;;5092448;28;20567;-47
2023/06/13 01:16:01;;;;;;;5.38;4.10;;;20.80;90.80;;;;;;5091935;28;20161;-47
2023/06/13 01:18:30;;;;;;;7.13;3.65;;;20.70;92.20;;;;;;5091427;28;20665;-48
2023/06/13 01:21:00;;;;;;;4.20;3.67;;;20.70;92.90;;;;;;5092468;28;20200;-48
2023/06/13 01:23:25;;;;;;;10.00;3.88;;;20.60;94.90;;;;;;5092473;28;20208;-47
2023/06/13 01:26:06;;;;;;;7.45;3.65;;;20.50;95.40;;;;;;5091816;28;20189;-47
2023/06/13 01:28:35;;;;;;;4.60;4.05;;;20.50;96.10;;;;;;5091106;28;20169;-47
2023/06/13 01:31:02;;;;;;;8.93;3.80;;;20.40;95.00;;;;;;5091730;28;20169;-47
2023/06/13 01:33:28;;;;;;;4.60;3.90;;;20.30;96.60;;;;;;5092114;28;20218;-47
2023/06/13 01:35:54;;;;;;;5.55;4.13;;;20.40;96.10;;;;;;5092096;28;20172;-47
2023/06/13 01:38:20;;;;;;;6.90;4.30;;;20.20;96.70;;;;;;5091623;28;20158;-47
2023/06/13 01:40:48;;;;;;;5.10;3.92;;;20.30;97.50;;;;;;5091685;28;20222;-47
2023/06/13 01:43:13;;;;;;;4.68;3.70;;;20.30;96.40;;;;;;5091564;28;20173;-47
2023/06/13 01:45:39;;;;;;;6.95;4.07;;;20.30;99.00;;;;;;5091543;28;20574;-47
2023/06/13 01:48:18;;;;;;;4.55;3.60;;;20.30;97.70;;;;;;5091523;28;20208;-47
2023/06/13 01:51:07;;;;;;;4.47;4.00;;;20.30;95.70;;;;;;5091492;28;20176;-47
2023/06/13 01:53:42;;;;;;;5.28;3.70;;;20.10;95.40;;;;;;5091331;28;20173;-47
2023/06/13 01:56:12;;;;;;;7.97;4.07;;;20.10;99.90;;;;;;5091483;28;20171;-47
2023/06/13 01:58:47;;;;;;;5.35;3.60;;;20.20;99.90;;;;;;5091619;28;20173;-47
2023/06/13 02:01:13;;;;;;;9.68;4.05;;;20.10;99.90;;;;;;5091353;28;20204;-47
2023/06/13 02:03:40;;;;;;;5.82;3.90;;;20.10;99.90;;;;;;5091235;28;20537;-49
2023/06/13 02:06:05;;;;;;;6.00;3.47;;;20.10;99.90;;;;;;5091676;28;20331;-49
2023/06/13 02:08:31;;;;;;;5.90;3.97;;;20.20;99.90;;;;;;5091282;28;20217;-48
2023/06/13 02:10:57;;;;;;;4.68;3.90;;;20.20;99.90;;;;;;5091647;28;20161;-48
2023/06/13 02:13:24;;;;;;;5.82;3.33;;;20.10;99.90;;;;;;5091289;28;20169;-48
2023/06/13 02:15:50;;;;;;;7.55;3.92;;;20.10;99.90;;;;;;5091408;28;20256;-47
2023/06/13 02:18:16;;;;;;;9.45;4.28;;;20.10;99.90;;;;;;5091496;28;20252;-46
2023/06/13 02:20:42;;;;;;;5.50;4.03;;;20.10;99.90;;;;;;5091269;28;20620;-47
2023/06/13 02:23:09;;;;;;;6.72;3.85;;;20.10;99.90;;;;;;5091359;28;20174;-46
2023/06/13 02:25:35;;;;;;;5.45;4.05;;;19.90;99.90;;;;;;5091276;28;20186;-46
2023/06/13 02:28:01;;;;;;;5.75;3.95;;;19.80;99.90;;;;;;5091460;28;20256;-46
2023/06/13 02:30:27;;;;;;;6.25;4.10;;;19.80;99.90;;;;;;5091625;28;20165;-46
2023/06/13 02:32:52;;;;;;;4.68;3.80;;;19.80;99.90;;;;;;5091144;28;20246;-46
2023/06/13 02:35:22;;;;;;;6.03;4.38;;;19.70;99.90;;;;;;5091287;28;20170;-46
2023/06/13 02:37:50;;;;;;;11.57;4.32;;;19.70;99.90;;;;;;5091397;28;20728;-47
2023/06/13 02:40:16;;;;;;;5.72;4.30;;;19.60;99.90;;;;;;5094306;28;20524;-47
2023/06/13 02:42:45;;;;;;;5.80;3.90;;;19.30;99.90;;;;;;5094843;28;20170;-47
2023/06/13 02:45:10;;;;;;;6.70;4.05;;;19.50;99.90;;;;;;5094782;28;20526;-47
2023/06/13 02:47:36;;;;;;;6.40;4.13;;;19.50;99.90;;;;;;5094768;28;20169;-47
2023/06/13 02:50:02;;;;;;;6.13;4.40;;;19.50;99.90;;;;;;5094646;28;20169;-47
2023/06/13 02:52:28;;;;;;;4.80;4.05;;;19.50;99.90;;;;;;5095367;28;20169;-46
2023/06/13 02:54:53;;;;;;;7.88;4.43;;;20.10;99.90;;;;;;5094999;28;20187;-48
2023/06/13 02:57:19;;;;;;;6.65;4.30;;;19.50;99.90;;;;;;5094581;28;20249;-47
2023/06/13 02:59:44;;;;;;;4.82;4.22;;;19.50;99.90;;;;;;5094766;28;20215;-47
2023/06/13 03:02:10;;;;;;;5.18;4.35;;;19.40;99.90;;;;;;5094584;28;20616;-47
2023/06/13 03:04:36;;;;;;;6.30;4.65;;;19.50;99.90;;;;;;5094150;28;20176;-47
2023/06/13 03:07:04;;;;;;;6.90;3.95;;;19.50;99.90;;;;;;5094123;28;20173;-47
2023/06/13 03:09:30;;;;;;;6.32;4.07;;;19.60;99.90;;;;;;5094466;28;20162;-48
2023/06/13 03:11:56;;;;;;;5.32;4.07;;;19.60;99.80;;;;;;5094693;28;20245;-47
2023/06/13 03:14:22;;;;;;;6.47;5.40;;;19.70;99.90;;;;;;5094543;28;20172;-52
2023/06/13 03:16:48;;;;;;;11.20;6.90;;;19.70;99.90;;;;;;5094154;28;20168;-50
2023/06/13 03:19:14;;;;;;;5.45;4.82;;;19.80;99.90;;;;;;5094083;28;20165;-52
2023/06/13 03:21:41;;;;;;;5.05;4.00;;;19.50;99.90;;;;;;5094026;28;20306;-48
2023/06/13 03:24:06;;;;;;;7.68;4.55;;;19.60;99.90;;;;;;5093989;28;20583;-48
2023/06/13 03:26:37;;;;;;;7.22;4.15;;;19.60;99.90;;;;;;5093911;28;20170;-51
2023/06/13 03:29:03;;;;;;;7.13;4.00;;;19.60;99.90;;;;;;5094183;28;20199;-51
2023/06/13 03:31:29;;;;;;;10.10;4.40;;;19.60;99.90;;;;;;5093858;28;20173;-51
2023/06/13 03:33:54;;;;;;;7.13;4.25;;;19.60;99.90;;;;;;5094235;28;20530;-52
2023/06/13 03:36:20;;;;;;;7.65;4.63;;;19.60;99.90;;;;;;5094085;28;20621;-51
2023/06/13 03:38:45;;;;;;;6.97;4.65;;;19.60;99.90;;;;;;5093759;28;20173;-48
2023/06/13 03:41:11;;;;;;;5.55;4.30;;;19.60;99.90;;;;;;5093538;28;20204;-47
2023/06/13 03:43:36;;;;;;;10.40;4.65;;;19.60;99.90;;;;;;5093449;28;20173;-48
2023/06/13 03:46:02;;;;;;;5.13;4.60;;;19.60;99.90;;;;;;5093647;28;20180;-47
2023/06/13 03:48:27;;;;;;;7.28;4.15;;;19.60;99.90;;;;;;5093895;28;20166;-47
2023/06/13 03:50:53;;;;;;;5.28;3.90;;;17.40;99.90;;;;;;5092735;28;20165;-51
2023/06/13 03:53:19;;;;;;;5.60;4.18;;;19.60;99.90;;;;;;5093345;28;20173;-47
2023/06/13 03:55:44;;;;;;;11.90;4.65;;;19.60;99.90;;;;;;5093184;28;20161;-47
2023/06/13 03:58:11;;;;;;;7.40;4.72;;;19.70;99.90;;;;;;5093371;28;20176;-47
2023/06/13 04:00:39;;;;;;;5.53;4.03;;;19.60;99.90;;;;;;5093525;28;20169;-47
2023/06/13 04:03:07;;;;;;;6.03;4.32;;;19.60;99.90;;;;;;5093462;28;20230;-47
2023/06/13 04:05:33;;;;;;;9.98;5.20;;;19.60;99.90;;;;;;5093855;28;20539;-47
2023/06/13 04:07:59;;;;;;;8.27;4.65;;;19.70;99.90;;;;;;5092946;28;20296;-47
2023/06/13 04:10:25;;;;;;;5.25;4.53;;;19.70;99.90;;;;;;5075316;28;20645;-47
2023/06/13 04:12:50;;;;;;;5.45;4.38;;;19.70;99.90;;;;;;5093051;28;20176;-47
2023/06/13 04:15:16;;;;;;;7.28;4.38;;;19.80;99.90;;;;;;5093289;28;20181;-48
2023/06/13 04:17:41;;;;;;;6.15;4.30;;;19.80;99.90;;;;;;5093012;28;20157;-47
2023/06/13 04:20:09;;;;;;;5.38;4.40;;;19.90;99.90;;;;;;5092942;28;20207;-47
2023/06/13 04:22:35;;;;;;;9.52;5.25;;;19.80;99.90;;;;;;5093021;28;20215;-47
2023/06/13 04:25:01;;;;;;;6.15;4.40;;;19.70;99.90;;;;;;5092688;28;20620;-47
2023/06/13 04:27:31;;;;;;;8.38;4.68;;;19.70;99.90;;;;;;5093197;28;20252;-47
2023/06/13 04:29:56;;;;;;;5.95;4.78;;;19.80;99.90;;;;;;5093411;28;20200;-47
2023/06/13 04:32:26;;;;;;;8.00;4.75;;;19.80;99.90;;;;;;5092803;28;20617;-47
2023/06/13 04:34:53;;;;;;;9.38;4.78;;;19.80;99.90;;;;;;5093218;28;20426;-47
2023/06/13 04:37:25;;;;;;;9.40;4.07;;;20.00;99.90;;;;;;5092491;28;20164;-48
2023/06/13 04:39:53;;;;;;;6.47;4.55;;;20.30;99.90;;;;;;5092623;28;20277;-47
2023/06/13 04:42:29;;;;;;;9.15;4.53;;;20.50;99.90;;;;;;5092209;28;20314;-47
2023/06/13 04:44:57;;;;;;;10.57;4.93;;;20.50;99.90;;;;;;5074569;28;20165;-51
2023/06/13 04:47:27;;;;;;;8.02;5.18;;;20.70;99.90;;;;;;5092642;28;20490;-50
2023/06/13 04:49:58;;;;;;;10.40;5.13;;;20.90;99.90;;;;;;5092962;28;20258;-49
2023/06/13 04:52:32;;;;;;;7.55;4.28;;;20.90;99.90;;;;;;5092864;28;20161;-52
2023/06/13 04:55:00;;;;;;;5.38;4.13;;;21.00;99.90;;;;;;5092253;28;20161;-50
2023/06/13 04:57:26;;;;;;;4.30;3.90;;;21.10;99.90;;;;;;5092950;28;20569;-52
2023/06/13 04:59:52;;;;;;;7.07;4.35;;;21.20;99.90;;;;;;5092261;28;20169;-50
2023/06/13 05:02:17;;;;;;;17.92;4.90;;;21.30;99.90;;;;;;5091879;28;20300;-51
2023/06/13 05:04:44;;;;;;;8.55;4.70;;;21.40;99.90;;;;;;5091991;28;20173;-51
2023/06/13 05:07:15;;;;;;;5.47;3.70;;;21.60;99.90;;;;;;5092097;28;20583;-50
2023/06/13 05:09:43;;;;;;;5.72;4.57;;;21.70;99.90;;;;;;5092081;28;20706;-50
2023/06/13 05:12:10;;;;;;;8.20;4.55;;;21.70;99.70;;;;;;5091967;28;20165;-47
2023/06/13 05:14:37;;;;;;;5.38;4.88;;;21.70;98.30;;;;;;5092181;28;20173;-48
2023/06/13 05:17:05;;;;;;;5.60;4.50;;;21.50;98.30;;;;;;5091728;28;20524;-48
2023/06/13 05:19:31;;;;;;;9.40;4.35;;;21.80;98.40;;;;;;5092058;28;20185;-48
2023/06/13 05:22:00;;;;;;;6.78;4.63;;;21.80;98.00;;;;;;5091773;28;20216;-47
2023/06/13 05:24:25;;;;;;;8.50;4.50;;;21.90;98.50;;;;;;5092445;28;20173;-47
2023/06/13 05:26:51;;;;;;;4.75;4.00;;;21.80;98.00;;;;;;5092026;28;20644;-47
2023/06/13 05:29:17;;;;;;;10.60;5.00;;;22.10;98.00;;;;;;5091699;28;20606;-46
2023/06/13 05:31:42;;;;;;;9.85;4.78;;;21.60;98.10;;;;;;5091593;28;20170;-47
2023/06/13 05:34:08;;;;;;;10.32;4.82;;;22.00;98.40;;;;;;5091662;28;20157;-47
2023/06/13 05:36:33;;;;;;;9.43;4.70;;;22.00;98.40;;;;;;5091884;28;20172;-48
2023/06/13 05:39:00;;;;;;;8.05;5.07;;;22.30;97.20;;;;;;5091329;28;20176;-48
2023/06/13 05:41:26;;;;;;;7.38;4.68;;;22.20;97.40;;;;;;5092098;28;20209;-46
2023/06/13 05:43:51;;;;;;;8.07;4.72;;;22.10;97.70;;;;;;5091522;28;20227;-48
2023/06/13 05:46:17;;;;;;;5.47;4.47;;;22.00;97.40;;;;;;5091846;28;20260;-47
2023/06/13 05:48:43;;;;;;;6.82;4.53;;;22.10;97.10;;;;;;5091572;28;20169;-47
2023/06/13 05:51:08;;;;;;;6.07;4.40;;;22.00;97.10;;;;;;5091540;28;20165;-51
2023/06/13 05:53:34;;;;;;;6.15;4.38;;;22.20;98.50;;;;;;5091707;28;20169;-47
2023/06/13 05:55:59;;;;;;;6.35;4.85;;;22.00;98.40;;;;;;5091449;28;20544;-47
2023/06/13 05:58:25;;;;;;;9.57;4.97;;;22.00;98.70;;;;;;5091908;28;20218;-47
2023/06/13 06:00:52;;;;;;;5.18;4.22;;;22.30;98.50;;;;;;5091322;28;20671;-47
2023/06/13 06:03:18;;;;;;;6.75;5.07;;;22.30;98.10;;;;;;5091642;28;20567;-49
2023/06/13 06:05:44;;;;;;;9.10;4.40;;;22.20;98.60;;;;;;5091549;28;20191;-50
2023/06/13 06:08:09;;;;;;;8.05;4.13;;;22.20;99.20;;;;;;5091232;28;20680;-47
2023/06/13 06:10:37;;;;;;;7.90;4.45;;;;;;;;;;5091346;28;20518;-47
2023/06/13 06:13:03;;;;;;;7.50;4.28;;;22.50;98.60;;;;;;5091212;28;20177;-47
2023/06/13 06:15:29;;;;;;;5.35;4.10;;;22.50;98.20;;;;;;5095455;28;20222;-48
2023/06/13 06:17:55;;;;;;;6.03;3.85;;;;;;;;;;5095986;28;20169;-48
2023/06/13 06:20:20;;;;;;;4.50;3.88;;;22.40;97.50;;;;;;5095517;28;20165;-47
2023/06/13 06:22:46;;;;;;;5.68;3.47;;;22.70;97.20;;;;;;5095428;28;20611;-47
2023/06/13 06:25:19;;;;;;;5.35;4.45;;;22.60;96.50;;;;;;5095111;28;20649;-47
2023/06/13 06:27:45;;;;;;;8.68;4.30;;;22.40;95.40;;;;;;5095667;28;20248;-47
2023/06/13 06:30:11;;;;;;;7.22;4.35;;;22.70;94.40;;;;;;5095019;28;20211;-47
2023/06/13 06:32:37;;;;;;;7.35;4.15;;;;;;;;;;5095016;28;20214;-48
2023/06/13 06:35:03;;;;;;;4.97;4.22;;;22.60;93.90;;;;;;5095003;28;20259;-47
2023/06/13 06:37:30;;;;;;;5.05;4.10;;;22.70;94.80;;;;;;5095130;28;20248;-48
2023/06/13 06:39:56;;;;;;;9.63;4.07;;;22.80;94.10;;;;;;5095448;28;20189;-47
2023/06/13 06:42:21;;;;;;;7.90;4.50;;;22.90;94.00;;;;;;5094753;28;20204;-47
2023/06/13 06:44:48;;;;;;;4.97;4.20;;;22.90;92.90;;;;;;5094816;28;20161;-47
2023/06/13 06:47:14;;;;;;;5.15;4.18;;;22.90;93.20;;;;;;5095096;28;20181;-47
2023/06/13 06:49:41;;;;;;;6.95;3.88;;;23.00;93.00;;;;;;5094725;28;20170;-47
2023/06/13 06:52:07;;;;;;;5.68;4.13;;;23.10;91.70;;;;;;5094620;28;20218;-47
2023/06/13 06:54:32;;;;;;;8.88;4.35;;;23.30;91.90;;;;;;5094499;28;20158;-49
2023/06/13 06:56:58;;;;;;;4.68;4.10;;;23.40;91.60;;;;;;5094584;28;20174;-48
2023/06/13 06:59:24;;;;;;;5.68;3.97;;;23.40;91.10;;;;;;5095221;28;20249;-47
2023/06/13 07:01:50;;;;;;;6.32;4.50;;;23.50;90.80;;;;;;5094568;28;20562;-47
2023/06/13 07:04:16;;;;;;;5.65;4.15;;;23.50;90.90;;;;;;5094719;28;20638;-47
2023/06/13 07:06:42;;;;;;;7.15;4.05;;;23.80;90.20;;;;;;5094438;28;20169;-47
2023/06/13 07:09:10;;;;;;;5.32;4.50;;;23.50;90.40;;;;;;5094212;28;20288;-47
2023/06/13 07:11:35;;;;;;;7.80;4.13;;;23.70;90.70;;;;;;5094593;28;20173;-47
2023/06/13 07:14:01;;;;;;;5.88;4.63;;;23.70;89.80;;;;;;5094150;28;20696;-47
2023/06/13 07:16:26;;;;;;;7.50;4.00;;;23.90;89.80;;;;;;5094693;28;20177;-47
2023/06/13 07:18:52;;;;;;;6.93;4.25;;;24.10;89.20;;;;;;5094762;28;20166;-47
2023/06/13 07:21:17;;;;;;;5.80;4.20;;;24.00;87.80;;;;;;5094054;28;20684;-47
2023/06/13 07:23:43;;;;;;;4.88;4.13;;;23.90;87.00;;;;;;5094082;28;20513;-47
2023/06/13 07:26:08;;;;;;;6.72;4.13;;;24.10;86.50;;;;;;5092635;28;20165;-47
2023/06/13 07:28:34;;;;;;;7.95;4.28;;;24.00;84.50;;;;;;5093979;28;20720;-47
2023/06/13 07:31:00;;;;;;;4.75;4.22;;;24.20;85.80;;;;;;5093855;28;20653;-47
2023/06/13 07:33:25;;;;;;;6.18;4.28;;;24.60;86.70;;;;;;5094300;28;20158;-47
2023/06/13 07:35:52;;;;;;;7.25;3.92;;;24.50;86.90;;;;;;5094120;28;20632;-47
2023/06/13 07:38:19;;;;;;;5.15;4.30;;;24.50;84.70;;;;;;5094081;28;20517;-47
2023/06/13 07:40:45;;;;;;;5.25;4.30;;;24.40;85.10;;;;;;5093875;28;20264;-47
2023/06/13 07:43:11;;;;;;;4.90;4.07;;;24.30;83.90;;;;;;5094013;28;20173;-47
2023/06/13 07:45:36;;;;;;;6.70;4.45;;;24.70;85.10;;;;;;5093774;28;20296;-47
2023/06/13 07:48:02;;;;;;;9.70;4.60;;;24.70;85.90;;;;;;5093596;28;20176;-47
2023/06/13 07:50:28;;;;;;;6.45;4.25;;;24.40;83.80;;;;;;5093539;28;20170;-48
2023/06/13 07:52:54;;;;;;;9.50;5.22;;;24.80;84.80;;;;;;5093879;28;20663;-47
2023/06/13 07:55:21;;;;;;;6.90;4.93;;;25.00;83.40;;;;;;5093547;28;20162;-47
2023/06/13 07:57:47;;;;;;;19.33;5.18;;;24.90;84.40;;;;;;5093346;28;20710;-48
2023/06/13 08:00:17;;;;;;;7.75;4.65;;;25.10;83.90;;;;;;5093385;28;20193;-47
2023/06/13 08:02:46;;;;;;;9.25;4.10;;;24.90;81.60;;;;;;5093479;28;20296;-47
2023/06/13 08:05:13;;;;;;;8.70;4.13;;;24.90;81.70;;;;;;5093357;28;20690;-47
2023/06/13 08:07:39;;;;;;;5.88;4.30;;;25.10;81.80;;;;;;5093266;28;20266;-47
2023/06/13 08:10:06;;;;;;;4.65;3.97;;;25.00;82.00;;;;;;5093249;28;20563;-47
2023/06/13 08:12:32;;;;;;;4.97;3.88;;;25.10;82.50;;;;;;5093172;28;20252;-48
2023/06/13 08:14:57;;;;;;;7.80;3.90;;;24.90;80.20;;;;;;5093063;28;20244;-51
2023/06/13 08:17:24;;;;;;;6.95;3.78;;;25.20;80.70;;;;;;5093459;28;20174;-47
2023/06/13 08:19:50;;;;;;;5.38;3.97;;;25.40;80.60;;;;;;5093262;28;20571;-48
2023/06/13 08:22:17;;;;;;;6.55;4.13;;;25.60;80.70;;;;;;5074688;28;20262;-46
2023/06/13 08:24:43;;;;;;;5.95;4.25;;;25.20;81.00;;;;;;5092993;28;20165;-47
2023/06/13 08:27:10;;;;;;;6.03;3.88;;;25.80;79.80;;;;;;5092648;28;20234;-47
2023/06/13 08:29:35;;;;;;;6.72;3.90;;;25.80;78.40;;;;;;5092733;28;20192;-47
2023/06/13 08:32:01;;;;;;;5.55;3.97;;;25.90;80.40;;;;;;5092724;28;20173;-48
2023/06/13 08:34:27;;;;;;;7.53;3.75;;;25.90;79.80;;;;;;5092552;28;20184;-48
2023/06/13 08:36:52;;;;;;;7.50;4.00;;;25.50;78.70;;;;;;5092980;28;20172;-47
2023/06/13 08:39:20;;;;;;;4.43;3.70;;;25.90;78.40;;;;;;5092615;28;20656;-47
2023/06/13 08:41:46;;;;;;;4.85;4.03;;;26.10;79.10;;;;;;5092896;28;20225;-47
2023/06/13 08:44:12;;;;;;;8.65;4.30;;;26.20;79.10;;;;;;5092770;28;20224;-47
2023/06/13 08:46:37;;;;;;;7.10;4.45;;;26.20;79.40;;;;;;5092468;28;20173;-47
2023/06/13 08:49:03;;;;;;;6.82;3.90;;;26.70;77.50;;;;;;5092601;28;20256;-47
2023/06/13 08:51:30;;;;;;;4.97;3.78;;;26.60;77.70;;;;;;5092424;28;20173;-47
2023/06/13 08:54:02;;;;;;;7.15;3.80;;;26.40;75.60;;;;;;5092986;28;20623;-47
2023/06/13 08:56:33;;;;;;;6.43;4.70;;;26.50;75.70;;;;;;5092615;28;20244;-47
2023/06/13 08:59:05;;;;;;;7.63;4.40;;;26.70;75.10;;;;;;5092542;28;20488;-47
2023/06/13 09:01:32;;;;;;;7.82;4.18;;;26.50;73.40;;;;;;5092353;28;20209;-47
2023/06/13 09:03:58;;;;;;;5.32;3.70;;;26.50;72.00;;;;;;5092290;28;20157;-47
2023/06/13 09:06:24;;;;;;;5.95;3.65;;;26.30;72.60;;;;;;5092522;28;20652;-47
2023/06/13 09:08:52;;;;;;;7.72;3.95;;;26.50;73.00;;;;;;5091919;28;20251;-47
2023/06/13 09:11:20;;;;;;;6.18;4.13;;;26.50;73.30;;;;;;5092025;28;20167;-47
2023/06/13 09:13:47;;;;;;;4.45;3.95;;;26.70;74.20;;;;;;5092021;28;20168;-47
2023/06/13 09:16:13;;;;;;;7.88;3.80;;;27.00;73.10;;;;;;5091995;28;20160;-47
2023/06/13 09:18:42;;;;;;;4.60;3.58;;;27.00;73.60;;;;;;5091923;28;20172;-47
2023/06/13 09:21:11;;;;;;;7.45;3.80;;;27.00;73.40;;;;;;5091956;28;20201;-48
2023/06/13 09:23:38;;;;;;;4.90;3.70;;;26.90;72.70;;;;;;5091675;28;20173;-47
2023/06/13 09:26:06;;;;;;;6.78;4.10;;;27.20;72.70;;;;;;5091894;28;20172;-47
2023/06/13 09:28:42;;;;;;;7.72;4.25;;;27.20;72.10;;;;;;5091741;28;20179;-47
2023/06/13 09:31:09;;;;;;;6.32;3.80;;;26.90;72.20;;;;;;5091988;28;20168;-47
2023/06/13 09:33:36;;;;;;;4.68;3.50;;;27.00;73.90;;;;;;5091862;28;20161;-46
2023/06/13 09:36:02;;;;;;;4.93;3.58;;;27.30;73.50;;;;;;5073654;28;20656;-48
2023/06/13 09:38:29;;;;;;;5.38;3.72;;;27.60;73.40;;;;;;5091776;28;20164;-48
2023/06/13 09:40:56;;;;;;;4.75;3.40;;;27.50;72.50;;;;;;5092239;28;20197;-47
2023/06/13 09:43:23;;;;;;;6.22;3.72;;;27.70;71.30;;;;;;5092248;28;20173;-47
2023/06/13 09:45:50;;;;;;;7.38;4.10;;;27.30;72.00;;;;;;5091912;28;20626;-47
2023/06/13 09:48:17;;;;;;;4.32;3.85;;;27.40;73.20;;;;;;5090839;28;20692;-47
2023/06/13 09:50:43;;;;;;;5.63;4.80;;;27.40;72.00;;;;;;5091468;28;20239;-47
2023/06/13 09:53:09;;;;;;;5.88;3.70;;;;;;;;;;5091774;28;20169;-47
2023/06/13 09:55:36;;;;;;;4.32;3.75;;;27.70;72.60;;;;;;5091578;28;20187;-47
2023/06/13 09:58:02;;;;;;;4.10;3.72;;;27.80;72.70;;;;;;5073469;28;20164;-47
2023/06/13 10:00:29;;;;;;;7.25;3.88;;;27.70;71.90;;;;;;5091420;28;20504;-47
2023/06/13 10:02:58;;;;;;;4.88;3.85;;;28.20;72.90;;;;;;5091958;28;20196;-47
2023/06/13 10:05:24;;;;;;;7.85;3.50;;;27.70;70.50;;;;;;5091966;28;20176;-46
2023/06/13 10:07:50;;;;;;;5.20;3.75;;;28.10;71.60;;;;;;5091321;28;20221;-47
2023/06/13 10:10:16;;;;;;;6.63;3.90;;;27.80;70.10;;;;;;5091700;28;20191;-46
2023/06/13 10:12:48;;;;;;;9.20;4.18;;;28.10;70.80;;;;;;5091245;28;20169;-47
2023/06/13 10:15:28;;;;;;;5.38;3.95;;;28.40;71.50;;;;;;5091356;28;20177;-48
2023/06/13 10:17:57;;;;;;;9.20;4.00;;;28.30;72.20;;;;;;5091801;28;20171;-48
2023/06/13 10:20:26;;;;;;;6.68;4.45;;;28.30;71.20;;;;;;5091753;28;20302;-47
2023/06/13 10:22:51;;;;;;;4.70;4.10;;;28.50;71.70;;;;;;5091641;28;20569;-48
2023/06/13 10:25:20;;;;;;;7.82;3.67;;;28.40;69.50;;;;;;5091238;28;20161;-46
2023/06/13 10:27:50;;;;;;;6.03;3.95;;;28.10;68.80;;;;;;5091209;28;20180;-49
2023/06/13 10:30:32;;;;;;;5.45;3.78;;;28.00;69.80;;;;;;5091298;28;20184;-47
2023/06/13 10:33:27;;;;;;;4.93;4.10;;;28.10;69.70;;;;;;5091156;28;20161;-47
2023/06/13 10:36:24;;;;;;;5.90;3.90;;;28.50;69.20;;;;;;5082750;28;20199;-46
2023/06/13 10:39:14;;;;;;;4.47;3.72;;;28.70;69.80;;;;;;5065646;28;20668;-47
2023/06/13 10:41:40;;;;;;;7.22;4.22;;;28.70;69.50;;;;;;5091081;28;20196;-47
2023/06/13 10:44:12;;;;;;;5.22;3.88;;;28.80;68.80;;;;;;5091300;28;20659;-46
2023/06/13 10:46:39;;;;;;;4.93;4.45;;;28.90;70.30;;;;;;5091064;28;20165;-47
2023/06/13 10:49:04;;;;;;;7.82;4.47;;;29.10;68.50;;;;;;5091335;28;20169;-47
2023/06/13 10:51:31;;;;;;;6.07;3.90;;;29.10;68.20;;;;;;5091164;28;20168;-46
2023/06/13 10:54:03;;;;;;;5.95;4.57;;;29.20;67.40;;;;;;5090943;28;20167;-46
2023/06/13 10:56:33;;;;;;;7.20;3.92;;;29.20;66.30;;;;;;5090995;28;20165;-47
2023/06/13 10:59:04;;;;;;;6.95;4.22;;;29.00;65.40;;;;;;5090929;28;20173;-46
2023/06/13 11:01:32;;;;;;;5.53;4.60;;;29.00;66.00;;;;;;5094666;28;20196;-46
2023/06/13 11:04:08;;;;;;;5.40;3.88;;;28.90;64.90;;;;;;5076262;28;20654;-46
2023/06/13 11:06:35;;;;;;;3.97;3.63;;;29.00;65.70;;;;;;5094479;28;20169;-47
2023/06/13 11:09:23;;;;;;;4.85;3.78;;;29.20;66.30;;;;;;5094269;28;20209;-46
2023/06/13 11:11:57;;;;;;;5.57;4.00;;;29.40;64.90;;;;;;5094494;28;20173;-46
2023/06/13 11:14:26;;;;;;;5.75;3.90;;;29.30;63.10;;;;;;5094768;28;20202;-47
2023/06/13 11:16:53;;;;;;;5.35;3.95;;;29.40;65.00;;;;;;5094658;28;20161;-48
2023/06/13 11:19:23;;;;;;;5.20;4.38;;;29.40;64.00;;;;;;5094287;28;20161;-45
2023/06/13 11:22:12;;;;;;;4.68;4.00;;;29.20;63.20;;;;;;5094290;28;20219;-46
2023/06/13 11:24:39;;;;;;;4.70;3.67;;;29.20;62.40;;;;;;5094140;28;20165;-47
2023/06/13 11:27:07;;;;;;;4.97;3.80;;;29.50;63.40;;;;;;5093978;28;20545;-47
2023/06/13 11:29:33;;;;;;;6.65;3.83;;;29.50;63.20;;;;;;5094188;28;20523;-46
2023/06/13 11:32:01;;;;;;;4.93;4.43;;;29.20;62.10;;;;;;5093715;28;20252;-46
2023/06/13 11:34:32;;;;;;;5.10;3.72;;;29.30;65.50;;;;;;5093593;28;20658;-47
2023/06/13 11:37:05;;;;;;;5.88;4.45;;;29.00;64.80;;;;;;5093607;28;20628;-46
2023/06/13 11:39:37;;;;;;;4.13;3.60;;;29.20;64.40;;;;;;5093859;28;20194;-46
2023/06/13 11:42:03;;;;;;;6.20;4.00;;;29.40;62.90;;;;;;5093550;28;20192;-46
2023/06/13 11:44:29;;;;;;;4.35;3.85;;;29.50;64.30;;;;;;5093201;28;20210;-46
2023/06/13 11:46:55;;;;;;;4.88;4.03;;;29.60;63.70;;;;;;5094140;28;20173;-46
2023/06/13 11:49:21;;;;;;;6.22;4.18;;;29.80;63.40;;;;;;5094086;28;20165;-47
2023/06/13 11:51:46;;;;;;;5.80;4.65;;;30.00;65.00;;;;;;5093353;28;20176;-46
2023/06/13 11:54:12;;;;;;;4.88;3.80;;;29.90;63.20;;;;;;5093333;28;20648;-46
2023/06/13 11:56:50;;;;;;;4.38;3.97;;;29.70;62.00;;;;;;5093485;28;20256;-50
2023/06/13 11:59:17;;;;;;;6.03;3.80;;;29.60;62.80;;;;;;5092904;28;20156;-51
2023/06/13 12:01:52;;;;;;;6.18;4.18;;;29.30;63.30;;;;;;5093045;28;20249;-51
2023/06/13 12:04:18;;;;;;;9.05;4.25;;;29.90;63.30;;;;;;5093139;28;20228;-49
2023/06/13 12:06:44;;;;;;;4.93;4.40;;;29.90;64.20;;;;;;5093238;28;20177;-49
2023/06/13 12:09:10;;;;;;;6.28;4.15;;;29.80;62.70;;;;;;5092733;28;20584;-47
2023/06/13 12:11:36;;;;;;;5.47;3.90;;;29.80;60.60;;;;;;5092046;28;20210;-51
2023/06/13 12:14:03;;;;;;;6.93;4.15;;;30.00;61.50;;;;;;5092842;28;20172;-51
2023/06/13 12:16:36;;;;;;;5.43;3.90;;;29.80;60.80;;;;;;5092830;28;20643;-52
2023/06/13 12:19:06;;;;;;;4.18;3.75;;;29.90;62.00;;;;;;5092828;28;20168;-47
2023/06/13 12:21:33;;;;;;;4.60;4.20;;;30.00;62.20;;;;;;5092970;28;20402;-47
2023/06/13 12:24:01;;;;;;;6.38;4.03;;;29.90;61.00;;;;;;5092690;28;20160;-48
2023/06/13 12:26:32;;;;;;;7.60;4.70;;;30.80;62.90;;;;;;5092874;28;20184;-48
2023/06/13 12:29:01;;;;;;;6.70;4.47;;;30.30;61.80;;;;;;5092593;28;20176;-49
2023/06/13 12:31:37;;;;;;;4.80;4.30;;;30.50;61.40;;;;;;5074431;28;20172;-47
2023/06/13 12:34:14;;;;;;;7.50;5.15;;;30.40;59.80;;;;;;5092770;28;20176;-47
2023/06/13 12:36:40;;;;;;;5.15;4.65;;;30.40;59.40;;;;;;5092570;28;20172;-47
2023/06/13 12:39:09;;;;;;;6.15;4.55;;;30.40;59.00;;;;;;5074176;28;20200;-50
2023/06/13 12:41:35;;;;;;;6.05;4.13;;;30.50;59.30;;;;;;5092440;28;20196;-48
2023/06/13 12:44:01;;;;;;;5.63;4.05;;;30.00;59.50;;;;;;5092087;28;20633;-48
2023/06/13 12:46:26;;;;;;;9.40;4.50;;;30.60;60.10;;;;;;5092262;28;20233;-47
2023/06/13 12:48:55;;;;;;;6.97;4.68;;;30.80;60.30;;;;;;5092600;28;20172;-47
2023/06/13 12:51:28;;;;;;;5.85;3.80;;;30.90;61.00;;;;;;5092550;28;20203;-48